Time;durP1;ratioP1;P1;durP2;ratioP2;P2;SDS_P1;SDS_P2;PMS_P1;PMS_P2;Temp;Humidity;BMP_temperature;BMP_pressure;BME280_temperature;BME280_humidity;BME280_pressure;Samples;Min_cycle;Max_cycle;Signal;HPM_P1;HPM_P2
2021/10/09 00:01:53;;;;;;;0.93;0.45;;;;;;;4.38;100.00;93551.09;5009771;28;20457;-85
2021/10/09 00:04:19;;;;;;;1.65;0.70;;;;;;;4.01;100.00;93523.53;5009651;28;20088;-85
2021/10/09 00:06:48;;;;;;;0.50;0.40;;;;;;;4.13;100.00;93538.44;5009201;28;20154;-85
2021/10/09 00:09:15;;;;;;;1.10;0.45;;;;;;;4.34;100.00;93540.47;5009330;28;20061;-85
2021/10/09 00:11:41;;;;;;;0.90;0.50;;;;;;;4.38;100.00;93541.75;5009571;28;20050;-85
2021/10/09 00:14:10;;;;;;;1.65;0.80;;;;;;;4.31;100.00;93537.47;5009671;28;20416;-86
2021/10/09 00:16:37;;;;;;;1.20;0.57;;;;;;;4.21;100.00;93540.97;5009323;28;20053;-85
2021/10/09 00:19:05;;;;;;;1.27;0.63;;;;;;;4.32;100.00;93514.41;5009426;28;20065;-85
2021/10/09 00:21:32;;;;;;;2.38;1.25;;;;;;;4.25;100.00;93519.34;5009553;28;20050;-85
2021/10/09 00:24:00;;;;;;;1.92;0.90;;;;;;;4.37;100.00;93537.63;5009476;28;20417;-84
2021/10/09 00:26:28;;;;;;;1.27;0.63;;;;;;;4.42;100.00;93526.94;5009490;28;20409;-84
2021/10/09 00:28:55;;;;;;;0.90;0.50;;;;;;;4.60;100.00;93547.09;5009456;28;20066;-84
2021/10/09 00:31:22;;;;;;;1.65;0.75;;;;;;;4.81;100.00;93528.69;5009169;28;20108;-84
2021/10/09 00:33:48;;;;;;;1.95;0.93;;;;;;;4.60;100.00;93521.63;5009192;28;20054;-84
2021/10/09 00:36:15;;;;;;;1.23;0.63;;;;;;;4.41;100.00;93533.75;5009778;28;20128;-83
2021/10/09 00:38:42;;;;;;;1.10;0.65;;;;;;;4.35;100.00;93510.75;5012010;28;20045;-83
2021/10/09 00:41:10;;;;;;;2.20;0.73;;;;;;;4.67;100.00;93531.94;5012897;28;20061;-84
2021/10/09 00:43:37;;;;;;;1.00;0.60;;;;;;;4.73;100.00;93531.28;5012965;28;20497;-83
2021/10/09 00:46:04;;;;;;;0.75;0.35;;;;;;;4.78;100.00;93525.69;5012536;28;20050;-82
2021/10/09 00:48:33;;;;;;;0.77;0.50;;;;;;;4.75;100.00;93524.28;5012867;28;20050;-83
2021/10/09 00:51:00;;;;;;;1.48;0.75;;;;;;;4.89;100.00;93530.41;5013043;28;20050;-82
2021/10/09 00:53:29;;;;;;;1.40;0.65;;;;;;;4.68;100.00;93526.69;5012751;28;20054;-82
2021/10/09 00:55:57;;;;;;;1.27;0.77;;;;;;;4.42;100.00;93493.88;5012611;28;20685;-83
2021/10/09 00:58:25;;;;;;;1.77;0.60;;;;;;;4.45;100.00;93521.53;5012965;28;20076;-81
2021/10/09 01:00:52;;;;;;;1.30;0.70;;;;;;;4.50;100.00;93526.91;5013071;28;20057;-84
2021/10/09 01:03:20;;;;;;;2.00;0.65;;;;;;;4.56;100.00;93515.28;5012324;28;20046;-84
2021/10/09 01:05:47;;;;;;;1.67;0.90;;;;;;;4.79;100.00;93523.00;5012936;28;20057;-84
2021/10/09 01:08:14;;;;;;;1.45;0.55;;;;;;;4.90;100.00;93519.28;5012953;28;20115;-84
2021/10/09 01:10:41;;;;;;;1.17;0.68;;;;;;;5.04;100.00;93491.50;5012464;28;20046;-84
2021/10/09 01:13:08;;;;;;;1.58;0.93;;;;;;;5.38;100.00;93508.19;5012492;28;20065;-83
2021/10/09 01:15:36;;;;;;;2.45;0.70;;;;;;;5.55;100.00;93521.59;5012407;28;20444;-83
2021/10/09 01:18:10;;;;;;;2.75;1.27;;;;;;;5.41;100.00;93456.88;5012119;28;20054;-83
2021/10/09 01:20:49;;;;;;;1.17;0.52;;;;;;;5.45;100.00;93515.91;5012479;28;20398;-84
2021/10/09 01:23:16;;;;;;;2.00;0.85;;;;;;;5.58;100.00;93508.50;5012150;28;20042;-83
2021/10/09 01:25:43;;;;;;;4.45;1.73;;;;;;;5.65;100.00;93502.72;5011974;28;20049;-84
2021/10/09 01:28:10;;;;;;;3.40;1.52;;;;;;;5.82;100.00;93508.47;5012198;28;20081;-83
2021/10/09 01:30:37;;;;;;;4.47;1.50;;;;;;;5.86;100.00;93510.53;5012240;28;20045;-82
2021/10/09 01:33:05;;;;;;;4.97;2.00;;;;;;;5.88;100.00;93493.28;5012356;28;20057;-84
2021/10/09 01:35:32;;;;;;;2.53;1.33;;;;;;;6.01;100.00;93491.88;5012184;28;20050;-83
2021/10/09 01:38:00;;;;;;;1.60;0.82;;;;;;;5.73;100.00;93502.66;5012191;28;20053;-83
2021/10/09 01:40:27;;;;;;;1.52;0.70;;;;;;;5.64;100.00;93491.72;5012287;28;20053;-84
2021/10/09 01:42:54;;;;;;;1.13;0.52;;;;;;;5.24;100.00;93496.97;5012303;28;20058;-83
2021/10/09 01:45:20;;;;;;;1.20;0.68;;;;;;;5.19;100.00;93492.38;5012152;28;20046;-82
2021/10/09 01:47:47;;;;;;;1.48;0.80;;;;;;;5.28;100.00;93498.19;5012221;28;20057;-83
2021/10/09 01:50:15;;;;;;;1.45;0.80;;;;;;;5.14;100.00;93497.19;5011494;28;20061;-82
2021/10/09 01:52:42;;;;;;;1.38;0.70;;;;;;;5.21;100.00;93497.31;5012325;28;20054;-82
2021/10/09 01:55:10;;;;;;;1.20;0.70;;;;;;;5.35;100.00;93493.22;5012257;28;20441;-82
2021/10/09 01:57:37;;;;;;;1.08;0.60;;;;;;;5.25;100.00;93479.91;5011940;28;20045;-82
2021/10/09 02:00:05;;;;;;;1.70;0.70;;;;;;;5.05;100.00;93488.03;5012038;28;20054;-83
2021/10/09 02:02:32;;;;;;;1.10;0.40;;;;;;;4.86;100.00;93490.00;5012161;28;20100;-82
2021/10/09 02:04:58;;;;;;;0.82;0.43;;;;;;;4.94;100.00;93491.72;5012031;28;20104;-83
2021/10/09 02:07:26;;;;;;;1.25;0.60;;;;;;;4.92;100.00;93493.66;5011602;28;20066;-82
2021/10/09 02:09:53;;;;;;;1.15;0.50;;;;;;;4.89;100.00;93502.41;5011926;28;20134;-82
2021/10/09 02:12:23;;;;;;;0.90;0.55;;;;;;;4.80;100.00;93499.13;5011934;28;20062;-83
2021/10/09 02:14:53;;;;;;;1.10;0.50;;;;;;;4.73;100.00;93472.75;5011852;28;20054;-83
2021/10/09 02:17:45;;;;;;;1.10;0.40;;;;;;;5.13;100.00;93489.72;5011436;28;20521;-82
2021/10/09 02:25:46;;;;;;;1.40;0.75;;;;;;;5.13;100.00;93480.31;5011353;28;20384;-82
2021/10/09 02:28:14;;;;;;;0.80;0.40;;;;;;;5.07;100.00;93488.63;5011671;28;20058;-83
2021/10/09 02:30:41;;;;;;;1.30;0.70;;;;;;;4.67;100.00;93488.66;5011269;28;20053;-83
2021/10/09 02:33:08;;;;;;;1.20;0.60;;;;;;;4.46;100.00;93482.41;5011600;28;20108;-83
2021/10/09 02:35:36;;;;;;;1.40;0.70;;;;;;;4.66;100.00;93494.72;5011234;28;20049;-83
2021/10/09 02:38:03;;;;;;;1.30;0.80;;;;;;;4.65;100.00;93496.50;5011283;28;20461;-84
2021/10/09 02:40:30;;;;;;;1.60;0.73;;;;;;;4.61;100.00;93482.50;5011370;28;20075;-83
2021/10/09 02:42:57;;;;;;;2.00;0.90;;;;;;;4.62;100.00;93488.38;5011070;28;20050;-83
2021/10/09 02:45:25;;;;;;;2.42;0.82;;;;;;;4.74;100.00;93506.63;5010964;28;20497;-83
2021/10/09 02:47:52;;;;;;;1.50;0.80;;;;;;;4.60;100.00;93505.56;5010625;28;20045;-83
2021/10/09 02:50:19;;;;;;;1.88;0.98;;;;;;;4.71;100.00;93495.03;5010383;28;20490;-83
2021/10/09 02:52:46;;;;;;;1.83;1.00;;;;;;;4.61;100.00;93510.50;5010475;28;20053;-82
2021/10/09 02:55:17;;;;;;;1.27;0.85;;;;;;;4.55;100.00;93501.75;5010352;28;20057;-82
2021/10/09 02:57:44;;;;;;;1.50;0.90;;;;;;;4.62;100.00;93496.00;5010421;28;20140;-83
2021/10/09 03:00:12;;;;;;;2.28;1.38;;;;;;;4.77;100.00;93504.53;5010215;28;20045;-83
2021/10/09 03:02:40;;;;;;;1.80;0.80;;;;;;;4.40;100.00;93473.69;5010348;28;20049;-83
2021/10/09 03:05:09;;;;;;;1.67;1.00;;;;;;;4.66;100.00;93503.16;5010223;28;20566;-83
2021/10/09 03:07:35;;;;;;;1.40;0.85;;;;;;;4.38;100.00;93485.78;5009998;28;20076;-84
2021/10/09 03:10:03;;;;;;;1.80;1.02;;;;;;;4.35;100.00;93510.75;5009821;28;20050;-83
2021/10/09 03:12:30;;;;;;;2.67;1.40;;;;;;;4.37;100.00;93496.09;5009957;28;20049;-83
2021/10/09 03:14:56;;;;;;;1.70;0.88;;;;;;;4.35;100.00;93487.88;5010033;28;20410;-83
2021/10/09 03:17:23;;;;;;;2.30;1.20;;;;;;;4.57;100.00;93493.19;5009858;28;20058;-83
2021/10/09 03:19:52;;;;;;;2.25;1.05;;;;;;;4.98;100.00;93494.72;5010218;28;20104;-83
2021/10/09 03:22:18;;;;;;;1.98;0.95;;;;;;;4.72;100.00;93471.16;5010220;28;20045;-84
2021/10/09 03:24:45;;;;;;;5.00;1.25;;;;;;;5.13;100.00;93505.78;5009692;28;20056;-84
2021/10/09 03:27:12;;;;;;;1.58;1.13;;;;;;;5.33;100.00;93490.84;5009772;28;20054;-83
2021/10/09 03:29:39;;;;;;;3.03;1.58;;;;;;;5.49;100.00;93499.34;5009724;28;20049;-84
2021/10/09 03:32:06;;;;;;;2.47;1.20;;;;;;;5.26;100.00;93471.31;5009847;28;20046;-84
2021/10/09 03:34:33;;;;;;;2.00;1.27;;;;;;;5.41;100.00;93482.34;5010029;28;20409;-84
2021/10/09 03:37:02;;;;;;;4.53;1.40;;;;;;;5.20;100.00;93452.44;5009892;28;20050;-83
2021/10/09 03:39:29;;;;;;;1.83;1.30;;;;;;;5.30;100.00;93498.84;5009977;28;20050;-82
2021/10/09 03:42:00;;;;;;;2.53;1.25;;;;;;;5.41;100.00;93497.63;5009654;28;20044;-82
2021/10/09 03:44:29;;;;;;;3.00;1.95;;;;;;;5.29;100.00;93499.00;5009918;28;20129;-83
2021/10/09 03:47:01;;;;;;;2.08;1.48;;;;;;;5.32;100.00;93478.31;5009470;28;20054;-85
2021/10/09 03:49:38;;;;;;;3.00;1.23;;;;;;;5.30;100.00;93465.72;5009758;28;20056;-86
2021/10/09 03:52:36;;;;;;;2.50;1.27;;;;;;;5.13;100.00;93492.28;5009914;28;20064;-84
2021/10/09 03:55:05;;;;;;;2.05;1.13;;;;;;;5.34;100.00;93496.75;5009284;28;20049;-84
2021/10/09 03:57:31;;;;;;;2.05;1.27;;;;;;;4.94;100.00;93461.19;5009533;28;20472;-84
2021/10/09 03:59:58;;;;;;;2.17;1.30;;;;;;;4.84;100.00;93504.66;5009593;28;20057;-84
2021/10/09 04:02:25;;;;;;;1.70;1.20;;;;;;;4.60;100.00;93505.56;5009490;28;20060;-85
2021/10/09 04:04:52;;;;;;;2.20;1.30;;;;;;;4.80;100.00;93499.13;5009516;28;20046;-85
2021/10/09 04:07:20;;;;;;;2.95;1.30;;;;;;;4.68;100.00;93491.06;5009268;28;20112;-85
2021/10/09 04:09:47;;;;;;;2.40;1.17;;;;;;;4.67;100.00;93503.94;5009443;28;20049;-85
2021/10/09 04:12:14;;;;;;;3.20;1.33;;;;;;;4.75;100.00;93508.19;5010014;28;20042;-85
2021/10/09 04:14:41;;;;;;;40.95;22.42;;;;;;;4.73;100.00;93495.66;5013300;28;20056;-85
2021/10/09 04:17:07;;;;;;;13.90;9.13;;;;;;;4.90;100.00;93510.84;5013482;28;20559;-85
2021/10/09 04:19:34;;;;;;;2.17;1.48;;;;;;;4.93;100.00;93508.78;5013456;28;20054;-86
2021/10/09 04:22:01;;;;;;;1.90;1.40;;;;;;;4.27;100.00;93420.78;5013098;28;20057;-85
2021/10/09 04:24:30;;;;;;;2.72;1.95;;;;;;;4.77;100.00;93508.84;5012465;28;20053;-85
2021/10/09 04:26:57;;;;;;;2.33;1.77;;;;;;;4.68;100.00;93508.09;5026160;28;20144;-84
2021/10/09 04:29:24;;;;;;;3.83;2.65;;;;;;;4.74;100.00;93479.44;5032505;28;20049;-85
2021/10/09 04:31:51;;;;;;;6.10;3.55;;;;;;;4.67;100.00;93481.03;5022170;28;20049;-85
2021/10/09 04:34:18;;;;;;;4.47;1.95;;;;;;;4.87;100.00;93488.28;5019913;28;20053;-85
2021/10/09 04:36:45;;;;;;;4.18;1.50;;;;;;;5.26;100.00;93517.16;5013175;28;20398;-85
2021/10/09 04:39:12;;;;;;;3.63;2.20;;;;;;;5.15;100.00;93523.44;5013178;28;20050;-85
2021/10/09 04:41:40;;;;;;;2.35;1.40;;;;;;;4.74;100.00;93509.16;5013003;28;20064;-85
2021/10/09 04:44:08;;;;;;;4.25;1.40;;;;;;;4.62;100.00;93514.63;5024118;28;20049;-86
2021/10/09 04:46:34;;;;;;;2.20;1.50;;;;;;;4.78;100.00;93520.63;5032619;28;20084;-83
2021/10/09 04:49:02;;;;;;;2.88;1.58;;;;;;;4.34;100.00;93486.25;5032460;28;20565;-83
2021/10/09 04:51:29;;;;;;;2.70;1.58;;;;;;;4.68;100.00;93523.34;5032385;28;20771;-83
2021/10/09 04:53:56;;;;;;;2.40;1.67;;;;;;;4.78;100.00;93518.84;5032607;28;20053;-83
2021/10/09 04:56:23;;;;;;;3.60;2.35;;;;;;;4.98;100.00;93530.38;5019768;28;20050;-84
2021/10/09 04:58:51;;;;;;;2.88;1.55;;;;;;;4.52;100.00;93493.66;5011251;28;20046;-84
2021/10/09 05:01:18;;;;;;;3.08;2.30;;;;;;;4.54;100.00;93528.16;5011960;28;20053;-82
2021/10/09 05:03:45;;;;;;;4.68;2.90;;;;;;;4.70;100.00;93523.19;5011998;28;20089;-82
2021/10/09 05:06:11;;;;;;;12.30;7.22;;;;;;;4.16;100.00;93533.03;5012244;28;20049;-84
2021/10/09 05:08:38;;;;;;;6.80;5.05;;;;;;;4.00;100.00;93524.50;5012560;28;20141;-85
2021/10/09 05:11:05;;;;;;;4.65;3.47;;;;;;;3.97;100.00;93524.81;5011999;28;20064;-83
2021/10/09 05:13:32;;;;;;;3.55;2.47;;;;;;;4.27;100.00;93537.00;5012344;28;20064;-84
2021/10/09 05:16:00;;;;;;;4.10;3.42;;;;;;;4.08;100.00;93520.34;5012344;28;20052;-83
2021/10/09 05:18:27;;;;;;;12.32;7.28;;;;;;;4.16;100.00;93547.50;5012232;28;20050;-83
2021/10/09 05:20:54;;;;;;;10.10;5.35;;;;;;;4.13;100.00;93536.69;5025295;28;20053;-83
2021/10/09 05:23:21;;;;;;;8.18;5.50;;;;;;;4.18;100.00;93530.34;5032062;28;20096;-81
2021/10/09 05:25:49;;;;;;;5.22;3.50;;;;;;;4.57;100.00;93546.63;5031565;28;20066;-81
2021/10/09 05:28:18;;;;;;;5.50;3.55;;;;;;;4.64;100.00;93550.09;5031949;28;20089;-81
2021/10/09 05:30:47;;;;;;;9.85;6.47;;;;;;;4.79;100.00;93545.91;5031567;28;20568;-81
2021/10/09 05:33:24;;;;;;;5.72;3.50;;;;;;;4.83;100.00;93546.34;5022802;28;20042;-82
2021/10/09 05:35:51;;;;;;;11.50;7.65;;;;;;;5.03;100.00;93551.84;5011954;28;20054;-81
2021/10/09 05:38:18;;;;;;;9.88;6.70;;;;;;;5.25;100.00;93558.88;5011760;28;20512;-80
2021/10/09 05:40:45;;;;;;;20.95;11.30;;;;;;;4.99;100.00;93557.44;5011616;28;20053;-82
2021/10/09 05:43:12;;;;;;;168.38;74.70;;;;;;;4.98;100.00;93527.81;5011517;28;20050;-82
2021/10/09 05:45:39;;;;;;;92.57;42.65;;;;;;;4.76;100.00;93519.97;5011392;28;20050;-82
2021/10/09 05:48:06;;;;;;;22.17;11.40;;;;;;;4.99;100.00;93540.38;5011719;28;20050;-82
2021/10/09 05:50:41;;;;;;;27.00;15.10;;;;;;;5.05;100.00;93547.34;5011672;28;20088;-82
2021/10/09 05:53:15;;;;;;;15.25;8.05;;;;;;;5.00;100.00;93553.94;5011457;28;20096;-81
2021/10/09 05:56:04;;;;;;;9.82;5.30;;;;;;;4.79;100.00;93556.09;5011545;28;20379;-82
2021/10/09 05:58:41;;;;;;;8.52;5.47;;;;;;;4.65;100.00;93566.94;5011372;28;20517;-81
2021/10/09 06:01:27;;;;;;;17.85;11.15;;;;;;;4.62;100.00;93560.41;5011670;28;20111;-81
2021/10/09 06:59:26;;;;;;;21.67;12.00;;;;;;;5.98;100.00;93564.44;5010044;28;20053;-84
2021/10/09 06:59:37;;;;;;;14.18;8.73;;;;;;;5.78;100.00;93574.31;5007837;28;20072;-84
2021/10/09 07:02:04;;;;;;;6.90;5.15;;;;;;;5.35;100.00;93577.28;5009496;28;20136;-84
2021/10/09 07:04:31;;;;;;;6.05;4.38;;;;;;;5.15;100.00;93572.63;5009993;28;20501;-84
2021/10/09 07:07:01;;;;;;;8.93;8.02;;;;;;;5.23;100.00;93576.88;5009962;28;20050;-83
2021/10/09 07:09:28;;;;;;;7.10;5.00;;;;;;;5.21;100.00;93584.69;5010350;28;20457;-84
2021/10/09 07:11:56;;;;;;;9.40;7.90;;;;;;;5.17;100.00;93577.53;5010284;28;20050;-83
2021/10/09 07:14:23;;;;;;;5.15;4.15;;;;;;;5.18;100.00;93563.84;5010125;28;20460;-83
2021/10/09 07:16:50;;;;;;;5.55;3.83;;;;;;;5.28;100.00;93584.03;5010152;28;20057;-83
2021/10/09 07:19:17;;;;;;;5.30;3.60;;;;;;;5.23;100.00;93589.59;5010379;28;20057;-83
2021/10/09 07:21:44;;;;;;;5.07;3.83;;;;;;;5.31;100.00;93598.97;5029650;28;20477;-84
2021/10/09 07:24:11;;;;;;;7.65;6.10;;;;;;;5.41;100.00;93601.31;5029596;28;20053;-83
2021/10/09 07:26:38;;;;;;;4.55;3.28;;;;;;;5.02;100.00;93602.91;5029815;28;20053;-83
2021/10/09 07:29:06;;;;;;;9.98;6.18;;;;;;;4.86;100.00;93584.19;5029448;28;20084;-83
2021/10/09 07:31:33;;;;;;;13.85;10.73;;;;;;;5.32;100.00;93603.13;5029670;28;20050;-83
2021/10/09 07:34:00;;;;;;;7.53;5.15;;;;;;;5.39;100.00;93613.41;5014329;28;20493;-84
2021/10/09 07:36:26;;;;;;;7.57;5.78;;;;;;;5.32;100.00;93615.84;5013946;28;20061;-84
2021/10/09 07:38:55;;;;;;;9.38;7.85;;;;;;;5.53;100.00;93609.34;5012305;28;20053;-83
2021/10/09 07:41:22;;;;;;;8.80;7.05;;;;;;;5.53;100.00;93610.16;5009524;28;20054;-83
2021/10/09 07:43:49;;;;;;;9.95;6.75;;;;;;;5.21;100.00;93597.44;5009781;28;20061;-83
2021/10/09 07:46:17;;;;;;;7.95;6.47;;;;;;;5.06;100.00;93597.31;5009059;28;20056;-83
2021/10/09 07:48:44;;;;;;;10.73;7.75;;;;;;;5.29;100.00;93603.44;5008805;28;20505;-83
2021/10/09 07:51:11;;;;;;;8.10;6.25;;;;;;;5.29;100.00;93618.72;5009674;28;20050;-83
2021/10/09 07:53:38;;;;;;;6.50;4.93;;;;;;;5.11;100.00;93586.66;5009376;28;20050;-84
2021/10/09 07:56:05;;;;;;;6.50;5.45;;;;;;;5.05;100.00;93589.88;5009505;28;20108;-83
2021/10/09 07:58:31;;;;;;;9.93;8.23;;;;;;;5.11;100.00;93601.13;5009389;28;20644;-84
2021/10/09 08:00:58;;;;;;;51.88;27.45;;;;;;;5.39;100.00;93611.66;5009271;28;20497;-84
2021/10/09 08:03:26;;;;;;;11.55;7.97;;;;;;;5.48;100.00;93609.88;5009134;28;20061;-84
2021/10/09 08:05:54;;;;;;;128.55;56.13;;;;;;;5.20;100.00;93616.19;5009172;28;20050;-84
2021/10/09 08:08:22;;;;;;;121.57;52.70;;;;;;;5.25;100.00;93602.97;5009661;28;20060;-84
2021/10/09 08:10:50;;;;;;;65.97;32.92;;;;;;;5.37;100.00;93617.88;5009569;28;20054;-83
2021/10/09 08:13:18;;;;;;;14.93;9.10;;;;;;;5.34;100.00;93609.59;5009104;28;20502;-84
2021/10/09 08:15:46;;;;;;;51.78;25.35;;;;;;;5.10;100.00;93581.72;5009270;28;20252;-84
2021/10/09 08:18:13;;;;;;;24.98;14.40;;;;;;;5.10;100.00;93574.88;5009419;28;20061;-84
2021/10/09 08:20:43;;;;;;;120.05;53.00;;;;;;;5.21;100.00;93589.78;5009054;28;20049;-84
2021/10/09 08:23:13;;;;;;;34.75;20.23;;;;;;;5.64;100.00;93608.97;5009365;28;20049;-84
2021/10/09 08:36:55;;;;;;;37.65;21.75;;;;;;;5.97;100.00;93611.28;5008946;28;20095;-86
2021/10/09 08:39:22;;;;;;;25.92;11.30;;;;;;;6.19;100.00;93615.78;5009203;28;20045;-85
2021/10/09 08:41:50;;;;;;;28.35;18.05;;;;;;;6.36;100.00;93629.19;5008817;28;20058;-84
2021/10/09 08:44:17;;;;;;;13.45;8.52;;;;;;;6.51;100.00;93635.13;5008814;28;20053;-84
2021/10/09 08:46:43;;;;;;;15.90;8.88;;;;;;;6.49;100.00;93637.03;5009010;28;20445;-84
2021/10/09 08:49:10;;;;;;;17.10;9.43;;;;;;;6.50;100.00;93608.03;5009032;28;20057;-84
2021/10/09 08:51:39;;;;;;;15.32;7.97;;;;;;;6.79;100.00;93624.31;5008814;28;20081;-85
2021/10/09 08:54:08;;;;;;;10.27;7.05;;;;;;;6.27;100.00;93629.28;5008932;28;20075;-83
2021/10/09 08:56:38;;;;;;;11.95;6.57;;;;;;;6.21;100.00;93619.75;5009258;28;20405;-83
2021/10/09 08:59:10;;;;;;;5.40;2.88;;;;;;;6.21;100.00;93612.09;5010467;28;20506;-84
2021/10/09 09:01:49;;;;;;;15.73;8.25;;;;;;;6.23;100.00;93632.31;5012822;28;20496;-84
2021/10/09 09:04:32;;;;;;;4.93;3.13;;;;;;;6.09;100.00;93626.22;5012470;28;20100;-83
2021/10/09 09:35:28;;;;;;;28.42;17.50;;;;;;;6.35;100.00;93637.81;5031909;28;20053;-83
2021/10/09 09:40:42;;;;;;;;;;;;;;;6.12;100.00;93646.28;5032026;28;20436;-83
2021/10/09 09:43:12;;;;;;;5.28;3.08;;;;;;;6.19;100.00;93639.53;5031367;28;19925;-84
2021/10/09 09:45:39;;;;;;;6.55;4.10;;;;;;;6.37;100.00;93646.91;5029051;28;20412;-84
2021/10/09 09:48:07;;;;;;;5.68;3.97;;;;;;;6.41;100.00;93640.50;5008943;28;20046;-84
2021/10/09 09:50:36;;;;;;;8.63;6.13;;;;;;;6.44;100.00;93646.19;5010545;28;20054;-84
2021/10/09 09:53:05;;;;;;;4.95;3.72;;;;;;;6.07;100.00;93589.91;5011210;28;20050;-84
2021/10/09 09:55:33;;;;;;;4.50;3.20;;;;;;;6.35;100.00;93622.50;5011609;28;20401;-83
2021/10/09 09:58:01;;;;;;;20.30;11.45;;;;;;;6.64;100.00;93646.50;5011370;28;20058;-83
2021/10/09 10:00:34;;;;;;;12.98;7.57;;;;;;;6.53;100.00;93615.31;5011283;28;20041;-84
2021/10/09 10:03:02;;;;;;;9.40;5.68;;;;;;;6.92;100.00;93633.94;5011357;28;20053;-84
2021/10/09 10:05:29;;;;;;;8.38;4.72;;;;;;;7.05;100.00;93646.06;5011175;28;20053;-84
2021/10/09 10:07:56;;;;;;;9.52;6.63;;;;;;;6.86;100.00;93636.38;5011201;28;20049;-83
2021/10/09 10:10:23;;;;;;;20.52;11.00;;;;;;;6.74;100.00;93613.03;5010139;28;20189;-83
2021/10/09 10:12:55;;;;;;;10.55;6.55;;;;;;;6.75;100.00;93628.19;5011374;28;20090;-83
2021/10/09 10:15:27;;;;;;;17.85;10.25;;;;;;;6.98;100.00;93612.00;5010971;28;20560;-84
2021/10/09 10:17:55;;;;;;;7.45;4.53;;;;;;;7.19;100.00;93643.69;5010683;28;20219;-84
2021/10/09 10:20:23;;;;;;;9.48;6.18;;;;;;;7.01;100.00;93626.97;5010785;28;20045;-83
2021/10/09 10:22:55;;;;;;;10.23;6.50;;;;;;;7.25;100.00;93645.53;5011052;28;20072;-85
2021/10/09 10:25:31;;;;;;;10.00;4.93;;;;;;;7.18;100.00;93635.22;5010720;28;20061;-84
2021/10/09 10:27:59;;;;;;;8.98;5.20;;;;;;;7.10;100.00;93640.44;5010847;28;20081;-84
2021/10/09 10:30:28;;;;;;;48.63;22.30;;;;;;;6.80;100.00;93627.66;5010569;28;20137;-84
2021/10/09 10:33:38;;;;;;;15.07;6.63;;;;;;;6.81;100.00;93645.38;5016615;28;20472;-84
2021/10/09 10:36:07;;;;;;;11.15;7.60;;;;;;;6.93;100.00;93640.63;5030270;28;20053;-83
2021/10/09 10:38:48;;;;;;;12.95;7.93;;;;;;;6.78;100.00;93647.47;5030572;28;20045;-85
2021/10/09 10:41:22;;;;;;;9.18;6.68;;;;;;;6.88;100.00;93642.91;5030509;28;20136;-83
2021/10/09 10:43:52;;;;;;;6.97;4.47;;;;;;;6.89;100.00;93634.28;5030286;28;20041;-83
2021/10/09 10:46:38;;;;;;;14.95;7.63;;;;;;;7.06;100.00;93634.09;5030340;28;20385;-83
2021/10/09 10:49:10;;;;;;;30.33;18.17;;;;;;;7.20;100.00;93645.28;5030115;28;20061;-83
2021/10/09 10:51:47;;;;;;;9.50;5.93;;;;;;;7.18;100.00;93625.00;5030176;28;20056;-84
2021/10/09 10:54:29;;;;;;;11.90;9.93;;;;;;;6.95;100.00;93607.25;5030158;28;20127;-84
2021/10/09 10:57:17;;;;;;;11.80;6.75;;;;;;;6.99;100.00;93597.47;5029825;28;20049;-84
2021/10/09 10:59:46;;;;;;;13.23;8.57;;;;;;;6.75;100.00;93577.13;5023704;28;20042;-83
2021/10/09 11:02:15;;;;;;;10.30;5.80;;;;;;;6.95;100.00;93605.47;5029693;28;20049;-84
2021/10/09 11:04:44;;;;;;;19.13;8.02;;;;;;;6.98;100.00;93641.88;5029689;28;20049;-84
2021/10/09 11:07:13;;;;;;;14.55;8.30;;;;;;;6.63;100.00;93627.81;5029999;28;20049;-84
2021/10/09 11:09:41;;;;;;;14.73;9.10;;;;;;;6.89;100.00;93639.38;5029594;28;20057;-83
2021/10/09 11:12:30;;;;;;;20.35;11.45;;;;;;;6.64;100.00;93611.56;5029656;28;20045;-83
2021/10/09 11:15:19;;;;;;;226.75;116.28;;;;;;;6.68;100.00;93615.31;5026824;28;20489;-82
2021/10/09 11:17:48;;;;;;;63.83;28.63;;;;;;;6.73;100.00;93629.34;5025220;28;20061;-84
2021/10/09 11:20:21;;;;;;;28.02;14.98;;;;;;;6.73;100.00;93634.44;5019038;28;20050;-83
2021/10/09 11:22:51;;;;;;;61.95;26.02;;;;;;;6.72;100.00;93636.22;5009067;28;20045;-84
2021/10/09 11:25:23;;;;;;;52.60;24.80;;;;;;;6.79;100.00;93636.28;5009848;28;20050;-84
2021/10/09 11:27:50;;;;;;;29.05;12.80;;;;;;;6.44;100.00;93613.03;5009610;28;20045;-83
2021/10/09 11:30:17;;;;;;;28.40;13.77;;;;;;;5.87;100.00;93558.00;5009927;28;20073;-84
2021/10/09 11:32:45;;;;;;;8.65;5.97;;;;;;;6.49;100.00;93631.94;5008135;28;20494;-83
2021/10/09 11:35:13;;;;;;;10.93;8.45;;;;;;;6.38;100.00;93637.47;5009891;28;20057;-82
2021/10/09 11:37:52;;;;;;;24.90;16.38;;;;;;;6.38;100.00;93632.34;5009603;28;20050;-82
2021/10/09 11:40:29;;;;;;;34.85;19.23;;;;;;;6.47;100.00;93623.69;5009769;28;20085;-82
2021/10/09 11:42:58;;;;;;;110.82;49.53;;;;;;;6.51;100.00;93630.03;5009529;28;20108;-82
2021/10/09 11:45:31;;;;;;;23.85;15.00;;;;;;;6.21;100.00;93617.19;5009614;28;20153;-82
2021/10/09 11:53:50;;;;;;;41.33;21.73;;;;;;;6.24;100.00;93599.00;5009302;28;20104;-83
2021/10/09 11:56:17;;;;;;;15.45;8.90;;;;;;;6.45;100.00;93637.56;5009374;28;20054;-83
2021/10/09 11:58:49;;;;;;;43.13;22.30;;;;;;;6.63;100.00;93644.91;5009114;28;20498;-83
2021/10/09 12:01:26;;;;;;;66.97;32.42;;;;;;;6.32;100.00;93608.34;5009279;28;20046;-83
2021/10/09 12:03:53;;;;;;;63.33;33.45;;;;;;;6.16;100.00;93604.19;5009159;28;20046;-83
2021/10/09 12:06:20;;;;;;;40.60;23.05;;;;;;;6.52;100.00;93641.00;5009254;28;20054;-82
2021/10/09 12:08:53;;;;;;;37.15;21.73;;;;;;;6.47;100.00;93617.78;5009365;28;20061;-82
2021/10/09 12:11:25;;;;;;;9.88;7.32;;;;;;;6.33;100.00;93625.22;5009117;28;20177;-83
2021/10/09 12:13:54;;;;;;;20.05;13.45;;;;;;;6.46;100.00;93642.50;5009636;28;20049;-83
2021/10/09 12:16:28;;;;;;;20.95;12.35;;;;;;;6.43;100.00;93631.84;5009196;28;20466;-82
2021/10/09 12:18:57;;;;;;;29.83;16.02;;;;;;;6.25;100.00;93627.88;5009564;28;20402;-82
2021/10/09 12:21:26;;;;;;;8.45;5.30;;;;;;;6.34;100.00;93651.56;5026451;28;20140;-81
2021/10/09 12:23:55;;;;;;;8.43;6.15;;;;;;;6.33;100.00;93635.44;5021758;28;20444;-82
2021/10/09 12:26:24;;;;;;;39.75;21.67;;;;;;;6.36;100.00;93658.06;5016802;28;20480;-82
2021/10/09 12:29:08;;;;;;;12.20;10.05;;;;;;;6.67;100.00;93658.91;5009376;28;20053;-82
2021/10/09 12:31:37;;;;;;;11.60;9.33;;;;;;;6.71;100.00;93657.59;5009382;28;20058;-82
2021/10/09 12:34:04;;;;;;;14.50;9.27;;;;;;;6.85;100.00;93676.44;5026181;28;20053;-82
2021/10/09 12:36:35;;;;;;;19.73;11.68;;;;;;;6.95;100.00;93681.31;5032851;28;20406;-82
2021/10/09 12:39:24;;;;;;;14.07;10.07;;;;;;;7.13;100.00;93677.63;5032754;28;20572;-82
2021/10/09 12:41:52;;;;;;;17.73;11.55;;;;;;;7.18;100.00;93673.53;5032751;28;20041;-82
2021/10/09 12:44:19;;;;;;;17.83;12.02;;;;;;;7.36;100.00;93680.06;5032464;28;20060;-83
2021/10/09 12:46:47;;;;;;;19.42;9.82;;;;;;;7.39;100.00;93684.03;5032595;28;20084;-83
2021/10/09 12:49:14;;;;;;;12.68;8.32;;;;;;;7.50;100.00;93693.78;5032343;28;20563;-83
2021/10/09 12:51:42;;;;;;;15.35;8.80;;;;;;;7.60;100.00;93696.88;5027779;28;20068;-83
2021/10/09 12:54:09;;;;;;;13.75;8.70;;;;;;;7.70;100.00;93699.16;5030647;28;20052;-83
2021/10/09 12:56:41;;;;;;;18.25;9.18;;;;;;;7.58;100.00;93688.59;5031696;28;20060;-84
2021/10/09 12:59:08;;;;;;;15.68;11.68;;;;;;;7.75;100.00;93713.97;5032124;28;20049;-84
2021/10/09 13:01:35;;;;;;;10.20;8.10;;;;;;;7.76;100.00;93715.53;5032359;28;20056;-84
2021/10/09 13:04:02;;;;;;;15.48;9.55;;;;;;;7.71;100.00;93707.59;5031830;28;20049;-84
2021/10/09 13:06:29;;;;;;;16.60;8.88;;;;;;;7.34;100.00;93687.91;5032077;28;20538;-84
2021/10/09 13:08:56;;;;;;;8.20;5.05;;;;;;;7.21;100.00;93693.66;5023522;28;20057;-84
2021/10/09 13:11:25;;;;;;;11.10;8.02;;;;;;;6.88;100.00;93690.63;5012343;28;20124;-84
2021/10/09 13:13:54;;;;;;;10.18;6.82;;;;;;;6.57;100.00;93656.59;5018333;28;20049;-84
2021/10/09 13:16:24;;;;;;;8.25;6.53;;;;;;;6.50;100.00;93653.97;5020702;28;20053;-85
2021/10/09 13:18:51;;;;;;;7.55;5.07;;;;;;;6.55;100.00;93676.41;5015837;28;20061;-82
2021/10/09 13:21:19;;;;;;;11.93;5.85;;;;;;;6.64;100.00;93680.47;5029228;28;20059;-82
2021/10/09 13:23:47;;;;;;;6.45;5.18;;;;;;;6.48;100.00;93678.06;5031611;28;20056;-84
2021/10/09 13:26:13;;;;;;;9.98;7.32;;;;;;;6.46;100.00;93654.47;5032267;28;20068;-83